Kt Birdie — 3FUJ7 — position and weather

sailwx.info

Track history (hours):
 
Tides and Currents Weather Stations Pressure Air Temp Water Temp Dewpoint Dewpoint Depression Visibility Wind Speed Wind Dir Waves Ship Positions

Kt Birdie

Last reported at 2015-Jun-02 06:33 UTC. Time now 2015-Jul-03 02:40 UTC.
Position S 26°45' E 154°07'.
Warning: this ship's position is 30 days out of date.

Length 225 m; draft 14.1 m.

Type: Cargo ship. MMSI: 354803000.

Date/timePositionNaut miles runAvg speedWind from/ knotsBaromVisibWave heightAir tempDewpointWater temp
2015-Jun-02 06:33S 26°45' E 154°07'35910.4
2015-May-31 20:04S 32°38' E 152°46'611.3
2015-May-31 19:33S 32°41' E 152°41'1111.5
2015-May-31 18:33S 32°48' E 152°29'1110.8
2015-May-31 17:33S 32°54' E 152°19'1010.3
2015-May-31 16:33S 32°56' E 152°07'1110.8
2015-May-31 15:33S 32°58' E 151°54'7 6.9
2015-May-31 14:33S 32°55' E 151°47'2 1.7
2015-May-31 13:31S 32°53' E 151°46'0 0.0
2015-May-31 12:31S 32°53' E 151°46'0 0.0
2015-May-31 11:31S 32°53' E 151°46'0 0.0
2015-May-31 10:28S 32°53' E 151°46'0 0.0
2015-May-31 09:31S 32°53' E 151°46'0 0.0
2015-May-31 08:31S 32°53' E 151°46'0 0.0
2015-May-31 07:31S 32°53' E 151°46'0 0.0
2015-May-31 06:31S 32°53' E 151°46'0 0.0
2015-May-31 05:31S 32°53' E 151°46'0 0.0
2015-May-31 04:31S 32°53' E 151°46'0 0.0
2015-May-31 03:31S 32°53' E 151°46'0 0.0
2015-May-31 02:31S 32°53' E 151°46'0 0.0
2015-May-31 01:25S 32°53' E 151°46'0 0.0
2015-May-31 00:31S 32°53' E 151°46'0 0.0
2015-May-30 23:31S 32°53' E 151°46'0 0.0
2015-May-30 22:31S 32°53' E 151°46'0 0.0
2015-May-30 21:31S 32°53' E 151°46'0 0.0
2015-May-30 20:31S 32°53' E 151°46'0 0.0
2015-May-30 19:31S 32°53' E 151°46'0 0.0
2015-May-30 18:31S 32°53' E 151°46'0 0.0
2015-May-30 17:31S 32°53' E 151°46'0 0.0
2015-May-30 16:33S 32°53' E 151°46'5 4.6
2015-May-30 15:33S 32°56' E 151°51'7 6.6
2015-May-30 14:33S 33°02' E 151°54'9 8.9
2015-May-30 13:33S 33°07' E 152°03'7 7.2
2015-May-30 12:33S 33°10' E 152°11'1 1.2
2015-May-30 11:23S 33°10' E 152°13'1 1.5
2015-May-30 10:32S 33°09' E 152°12'1 1.0
2015-May-30 09:32S 33°08' E 152°12'1 0.6
2015-May-30 08:32S 33°07' E 152°12'0 0.4
2015-May-30 07:32S 33°07' E 152°11'0 0.3
2015-May-30 06:14S 33°07' E 152°11'0 0.4
2015-May-30 05:32S 33°07' E 152°11'5 5.6
2015-May-30 04:33S 33°02' E 152°14'1 0.5
2015-May-30 03:31S 33°03' E 152°15'0 0.4
2015-May-30 02:31S 33°03' E 152°14'0 0.5
2015-May-30 01:31S 33°03' E 152°14'0 0.5
2015-May-30 00:31S 33°03' E 152°13'0 0.4
2015-May-29 23:31S 33°04' E 152°13'1 0.5
2015-May-29 22:28S 33°04' E 152°14'1 0.6
2015-May-29 21:31S 33°04' E 152°14'1 0.5
2015-May-29 20:31S 33°04' E 152°15'1 0.6
2015-May-29 19:31S 33°05' E 152°15'0 0.4
2015-May-29 18:31S 33°05' E 152°16'1 0.6
2015-May-29 17:31S 33°05' E 152°17'1 0.5
2015-May-29 16:25S 33°06' E 152°17'0 0.2
2015-May-29 15:31S 33°06' E 152°17'0 0.5
2015-May-29 14:28S 33°06' E 152°18'0 0.3
2015-May-29 13:31S 33°06' E 152°18'0 0.3
2015-May-29 12:28S 33°06' E 152°18'0 0.3
2015-May-29 11:28S 33°07' E 152°18'0 0.2
2015-May-29 10:28S 33°07' E 152°18'0 0.3
2015-May-29 09:28S 33°07' E 152°18'0 0.5
2015-May-29 08:28S 33°08' E 152°18'0 0.4
2015-May-29 07:28S 33°08' E 152°18'1 0.6
2015-May-29 06:28S 33°08' E 152°17'1 0.7
2015-May-29 05:31S 33°09' E 152°17'1 0.9
2015-May-29 04:33S 33°09' E 152°16'1 1.0
2015-May-29 03:33S 33°09' E 152°15'1 1.2
2015-May-29 02:33S 33°09' E 152°13'1 1.4
2015-May-29 01:33S 33°09' E 152°12'12 0.5
2015-May-28 02:07S 33°20' E 152°05'0 0.7
2015-May-28 01:28S 33°20' E 152°04'5 5.8
2015-May-28 00:33S 33°22' E 151°59'1312.9
2015-May-27 23:32S 33°34' E 151°51'34 0.7
2015-May-25 22:28S 33°17' E 152°26'3 1.0
2015-May-25 19:28S 33°14' E 152°27'1213.7
2015-May-25 18:34S 33°15' E 152°12'2 1.7
2015-May-25 17:19S 33°14' E 152°10'1 0.8
2015-May-25 16:28S 33°14' E 152°10'0 0.5
2015-May-25 15:31S 33°14' E 152°11'1 0.6
2015-May-25 14:31S 33°13' E 152°11'1 0.8
2015-May-25 13:34S 33°12' E 152°11'1 1.0
2015-May-25 12:31S 33°11' E 152°12'1 0.5
2015-May-25 11:31S 33°11' E 152°12'7 7.0
2015-May-25 10:33S 33°14' E 152°05'  
Track history (hours):
 
Tides and Currents Weather Stations Pressure Air Temp Water Temp Dewpoint Dewpoint Depression Visibility Wind Speed Wind Dir Waves Ship Positions

Kt Birdie

Last reported at 2015-Jun-02 06:33 UTC. Time now 2015-Jul-03 02:40 UTC.
Position S 26°45' E 154°07'.
Warning: this ship's position is 30 days out of date.

Length 225 m; draft 14.1 m.

Type: Cargo ship. MMSI: 354803000.

Date/timePositionNaut miles runAvg speedWind from/ knotsBaromVisibWave heightAir tempDewpointWater temp
2015-Jun-02 06:33S 26°45' E 154°07'35910.4
2015-May-31 20:04S 32°38' E 152°46'611.3
2015-May-31 19:33S 32°41' E 152°41'1111.5
2015-May-31 18:33S 32°48' E 152°29'1110.8
2015-May-31 17:33S 32°54' E 152°19'1010.3
2015-May-31 16:33S 32°56' E 152°07'1110.8
2015-May-31 15:33S 32°58' E 151°54'7 6.9
2015-May-31 14:33S 32°55' E 151°47'2 1.7
2015-May-31 13:31S 32°53' E 151°46'0 0.0
2015-May-31 12:31S 32°53' E 151°46'0 0.0
2015-May-31 11:31S 32°53' E 151°46'0 0.0
2015-May-31 10:28S 32°53' E 151°46'0 0.0
2015-May-31 09:31S 32°53' E 151°46'0 0.0
2015-May-31 08:31S 32°53' E 151°46'0 0.0
2015-May-31 07:31S 32°53' E 151°46'0 0.0
2015-May-31 06:31S 32°53' E 151°46'0 0.0
2015-May-31 05:31S 32°53' E 151°46'0 0.0
2015-May-31 04:31S 32°53' E 151°46'0 0.0
2015-May-31 03:31S 32°53' E 151°46'0 0.0
2015-May-31 02:31S 32°53' E 151°46'0 0.0
2015-May-31 01:25S 32°53' E 151°46'0 0.0
2015-May-31 00:31S 32°53' E 151°46'0 0.0
2015-May-30 23:31S 32°53' E 151°46'0 0.0
2015-May-30 22:31S 32°53' E 151°46'0 0.0
2015-May-30 21:31S 32°53' E 151°46'0 0.0
2015-May-30 20:31S 32°53' E 151°46'0 0.0
2015-May-30 19:31S 32°53' E 151°46'0 0.0
2015-May-30 18:31S 32°53' E 151°46'0 0.0
2015-May-30 17:31S 32°53' E 151°46'0 0.0
2015-May-30 16:33S 32°53' E 151°46'5 4.6
2015-May-30 15:33S 32°56' E 151°51'7 6.6
2015-May-30 14:33S 33°02' E 151°54'9 8.9
2015-May-30 13:33S 33°07' E 152°03'7 7.2
2015-May-30 12:33S 33°10' E 152°11'1 1.2
2015-May-30 11:23S 33°10' E 152°13'1 1.5
2015-May-30 10:32S 33°09' E 152°12'1 1.0
2015-May-30 09:32S 33°08' E 152°12'1 0.6
2015-May-30 08:32S 33°07' E 152°12'0 0.4
2015-May-30 07:32S 33°07' E 152°11'0 0.3
2015-May-30 06:14S 33°07' E 152°11'0 0.4
2015-May-30 05:32S 33°07' E 152°11'5 5.6
2015-May-30 04:33S 33°02' E 152°14'1 0.5
2015-May-30 03:31S 33°03' E 152°15'0 0.4
2015-May-30 02:31S 33°03' E 152°14'0 0.5
2015-May-30 01:31S 33°03' E 152°14'0 0.5
2015-May-30 00:31S 33°03' E 152°13'0 0.4
2015-May-29 23:31S 33°04' E 152°13'1 0.5
2015-May-29 22:28S 33°04' E 152°14'1 0.6
2015-May-29 21:31S 33°04' E 152°14'1 0.5
2015-May-29 20:31S 33°04' E 152°15'1 0.6
2015-May-29 19:31S 33°05' E 152°15'0 0.4
2015-May-29 18:31S 33°05' E 152°16'1 0.6
2015-May-29 17:31S 33°05' E 152°17'1 0.5
2015-May-29 16:25S 33°06' E 152°17'0 0.2
2015-May-29 15:31S 33°06' E 152°17'0 0.5
2015-May-29 14:28S 33°06' E 152°18'0 0.3
2015-May-29 13:31S 33°06' E 152°18'0 0.3
2015-May-29 12:28S 33°06' E 152°18'0 0.3
2015-May-29 11:28S 33°07' E 152°18'0 0.2
2015-May-29 10:28S 33°07' E 152°18'0 0.3
2015-May-29 09:28S 33°07' E 152°18'0 0.5
2015-May-29 08:28S 33°08' E 152°18'0 0.4
2015-May-29 07:28S 33°08' E 152°18'1 0.6
2015-May-29 06:28S 33°08' E 152°17'1 0.7
2015-May-29 05:31S 33°09' E 152°17'1 0.9
2015-May-29 04:33S 33°09' E 152°16'1 1.0
2015-May-29 03:33S 33°09' E 152°15'1 1.2
2015-May-29 02:33S 33°09' E 152°13'1 1.4
2015-May-29 01:33S 33°09' E 152°12'12 0.5
2015-May-28 02:07S 33°20' E 152°05'0 0.7
2015-May-28 01:28S 33°20' E 152°04'5 5.8
2015-May-28 00:33S 33°22' E 151°59'1312.9
2015-May-27 23:32S 33°34' E 151°51'34 0.7
2015-May-25 22:28S 33°17' E 152°26'3 1.0
2015-May-25 19:28S 33°14' E 152°27'1213.7
2015-May-25 18:34S 33°15' E 152°12'2 1.7
2015-May-25 17:19S 33°14' E 152°10'1 0.8
2015-May-25 16:28S 33°14' E 152°10'0 0.5
2015-May-25 15:31S 33°14' E 152°11'1 0.6
2015-May-25 14:31S 33°13' E 152°11'1 0.8
2015-May-25 13:34S 33°12' E 152°11'1 1.0
2015-May-25 12:31S 33°11' E 152°12'1 0.5
2015-May-25 11:31S 33°11' E 152°12'7 7.0
2015-May-25 10:33S 33°14' E 152°05'  

Dump ship's entire track history